Opal Express — V7KB8 — position and weather

sailwx.info

Track history (hours):
 
Tides and Currents Weather Stations Pressure Air Temp Water Temp Dewpoint Dewpoint Depression Visibility Wind Speed Wind Dir Waves Ship Positions

Opal Express

Last reported at 2015-Apr-18 02:24 UTC. Time now 2015-Apr-18 07:17 UTC.
Position N 24°01' W 085°22'.

Length 179 m; draft 7.8 m.

Type: Tanker. MMSI: 538002500.

Date/timePositionNaut miles runAvg speedWind from/ knotsBaromVisibWave heightAir tempDewpointWater temp
2015-Apr-18 02:24N 24°01' W 085°22'314 9.2
2015-Apr-16 16:28N 25°38' W 079°54'1010.9
2015-Apr-16 15:33N 25°48' W 079°57'1010.3
2015-Apr-16 14:33N 25°58' W 079°59'9 8.9
2015-Apr-16 13:33N 26°06' W 080°04'3 2.3
2015-Apr-16 12:23N 26°05' W 080°07'0 0.0
2015-Apr-16 11:26N 26°05' W 080°07'0 0.0
2015-Apr-16 10:26N 26°05' W 080°07'0 0.0
2015-Apr-16 09:29N 26°05' W 080°07'0 0.0
2015-Apr-16 08:29N 26°05' W 080°07'0 0.0
2015-Apr-16 07:26N 26°05' W 080°07'0 0.0
2015-Apr-16 06:32N 26°05' W 080°07'0 0.0
2015-Apr-16 05:32N 26°05' W 080°07'0 0.0
2015-Apr-16 04:32N 26°05' W 080°07'0 0.0
2015-Apr-16 03:32N 26°05' W 080°07'0 0.0
2015-Apr-16 02:32N 26°05' W 080°07'0 0.0
2015-Apr-16 01:32N 26°05' W 080°07'0 0.0
2015-Apr-16 00:32N 26°05' W 080°07'0 0.0
2015-Apr-15 23:23N 26°05' W 080°07'0 0.0
2015-Apr-15 22:23N 26°05' W 080°07'0 0.0
2015-Apr-15 21:26N 26°05' W 080°07'0 0.0
2015-Apr-15 20:26N 26°05' W 080°07'0 0.0
2015-Apr-15 19:29N 26°05' W 080°07'0 0.0
2015-Apr-15 18:26N 26°05' W 080°07'0 0.0
2015-Apr-15 17:29N 26°05' W 080°07'0 0.0
2015-Apr-15 16:32N 26°05' W 080°07'0 0.0
2015-Apr-15 15:32N 26°05' W 080°07'0 0.0
2015-Apr-15 14:32N 26°05' W 080°07'0 0.0
2015-Apr-15 13:32N 26°05' W 080°07'0 0.0
2015-Apr-15 12:32N 26°05' W 080°07'0 0.0
2015-Apr-15 11:32N 26°05' W 080°07'0 0.0
2015-Apr-15 10:32N 26°05' W 080°07'0 0.0
2015-Apr-15 09:23N 26°05' W 080°07'0 0.0
2015-Apr-15 08:23N 26°05' W 080°07'0 0.0
2015-Apr-15 07:26N 26°05' W 080°07'0 0.0
2015-Apr-15 06:26N 26°05' W 080°07'0 0.0
2015-Apr-15 05:29N 26°05' W 080°07'0 0.0
2015-Apr-15 04:26N 26°05' W 080°07'0 0.0
2015-Apr-15 03:29N 26°05' W 080°07'0 0.0
2015-Apr-15 02:32N 26°05' W 080°07'0 0.0
2015-Apr-15 01:29N 26°05' W 080°07'0 0.1
2015-Apr-15 00:33N 26°05' W 080°07'4 4.1
2015-Apr-14 23:33N 26°06' W 080°03'2 1.6
2015-Apr-14 22:23N 26°08' W 080°04'0 0.0
2015-Apr-14 21:26N 26°08' W 080°04'0 0.0
2015-Apr-14 20:26N 26°08' W 080°04'0 0.0
2015-Apr-14 19:26N 26°08' W 080°04'0 0.0
2015-Apr-14 18:29N 26°08' W 080°04'0 0.0
2015-Apr-14 17:29N 26°08' W 080°04'0 0.0
2015-Apr-14 16:33N 26°08' W 080°04'0 0.0
2015-Apr-14 15:33N 26°08' W 080°04'0 0.0
2015-Apr-14 14:34N 26°08' W 080°04'0 0.0
2015-Apr-14 13:33N 26°08' W 080°04'0 0.0
2015-Apr-14 12:33N 26°08' W 080°04'0 0.0
2015-Apr-14 11:33N 26°08' W 080°04'0 0.0
2015-Apr-14 10:33N 26°08' W 080°04'0 0.0
2015-Apr-14 09:33N 26°08' W 080°04'0 0.0
2015-Apr-14 08:33N 26°08' W 080°04'0 0.0
2015-Apr-14 07:33N 26°08' W 080°04'0 0.0
2015-Apr-14 06:33N 26°08' W 080°04'0 0.0
2015-Apr-14 05:33N 26°08' W 080°04'0 0.0
2015-Apr-14 04:33N 26°08' W 080°04'0 0.0
2015-Apr-14 03:33N 26°08' W 080°04'0 0.0
2015-Apr-14 02:33N 26°08' W 080°04'0 0.0
2015-Apr-14 01:33N 26°08' W 080°04'0 0.0
2015-Apr-14 00:33N 26°08' W 080°04'0 0.0
2015-Apr-13 23:33N 26°08' W 080°04'0 0.0
2015-Apr-13 22:33N 26°08' W 080°04'0 0.0
2015-Apr-13 21:33N 26°08' W 080°04'0 0.0
2015-Apr-13 20:33N 26°08' W 080°04'0 0.0
2015-Apr-13 19:33N 26°08' W 080°04'0 0.0
2015-Apr-13 18:33N 26°08' W 080°04'0 0.0
2015-Apr-13 17:33N 26°08' W 080°04'0 0.0
2015-Apr-13 16:33N 26°08' W 080°04'0 0.0
2015-Apr-13 15:33N 26°08' W 080°04'0 0.0
2015-Apr-13 14:33N 26°08' W 080°04'0 0.0
2015-Apr-13 13:33N 26°08' W 080°04'0 0.0
2015-Apr-13 12:33N 26°08' W 080°04'0 0.0
2015-Apr-13 11:33N 26°08' W 080°04'0 0.0
2015-Apr-13 10:33N 26°08' W 080°04'0 0.0
2015-Apr-13 09:33N 26°08' W 080°04'0 0.0
2015-Apr-13 08:33N 26°08' W 080°04'0 0.0
2015-Apr-13 07:33N 26°08' W 080°04'0 0.0
2015-Apr-13 06:33N 26°08' W 080°04'0 0.0
2015-Apr-13 05:33N 26°08' W 080°04'0 0.0
2015-Apr-13 04:33N 26°08' W 080°04'0 0.0
2015-Apr-13 03:33N 26°08' W 080°04'0 0.0
2015-Apr-13 02:33N 26°08' W 080°04'0 0.0
2015-Apr-13 01:33N 26°08' W 080°04'0 0.0
2015-Apr-13 00:33N 26°08' W 080°04'0 0.0
2015-Apr-12 23:33N 26°08' W 080°04'0 0.0
2015-Apr-12 22:33N 26°08' W 080°04'0 0.0
2015-Apr-12 21:33N 26°08' W 080°04'0 0.0
2015-Apr-12 20:33N 26°08' W 080°04'0 0.0
2015-Apr-12 19:33N 26°08' W 080°04'0 0.0
2015-Apr-12 18:33N 26°08' W 080°04'0 0.0
2015-Apr-12 17:33N 26°08' W 080°04'0 0.0
2015-Apr-12 16:33N 26°08' W 080°04'0 0.0
2015-Apr-12 15:33N 26°08' W 080°04'0 0.0
2015-Apr-12 14:33N 26°08' W 080°04'0 0.0
2015-Apr-12 13:33N 26°08' W 080°04'0 0.0
2015-Apr-12 12:33N 26°08' W 080°04'0 0.0
2015-Apr-12 11:33N 26°08' W 080°04'0 0.0
2015-Apr-12 10:33N 26°08' W 080°04'0 0.1
2015-Apr-12 09:33N 26°08' W 080°04'0 0.0
2015-Apr-12 08:33N 26°08' W 080°04'0 0.0
2015-Apr-12 07:33N 26°08' W 080°04'0 0.0
2015-Apr-12 06:33N 26°08' W 080°04'0 0.0
2015-Apr-12 05:33N 26°08' W 080°04'0 0.0
2015-Apr-12 04:33N 26°08' W 080°04'0 0.0
2015-Apr-12 03:33N 26°08' W 080°04'0 0.0
2015-Apr-12 02:33N 26°08' W 080°04'0 0.1
2015-Apr-12 01:33N 26°08' W 080°04'0 0.0
2015-Apr-12 00:33N 26°08' W 080°04'0 0.0
2015-Apr-11 23:33N 26°08' W 080°04'0 0.0
2015-Apr-11 22:33N 26°08' W 080°04'0 0.0
2015-Apr-11 21:33N 26°08' W 080°04'0 0.0
2015-Apr-11 20:33N 26°08' W 080°04'0 0.0
2015-Apr-11 19:33N 26°08' W 080°04'0 0.1
2015-Apr-11 18:33N 26°08' W 080°04'1 0.6
2015-Apr-11 17:32N 26°08' W 080°03'3 3.1
2015-Apr-11 16:33N 26°05' W 080°02'1414.4
2015-Apr-11 15:33N 25°51' W 079°57'  
Track history (hours):
 
Tides and Currents Weather Stations Pressure Air Temp Water Temp Dewpoint Dewpoint Depression Visibility Wind Speed Wind Dir Waves Ship Positions

Opal Express

Last reported at 2015-Apr-18 02:24 UTC. Time now 2015-Apr-18 07:17 UTC.
Position N 24°01' W 085°22'.

Length 179 m; draft 7.8 m.

Type: Tanker. MMSI: 538002500.

Date/timePositionNaut miles runAvg speedWind from/ knotsBaromVisibWave heightAir tempDewpointWater temp
2015-Apr-18 02:24N 24°01' W 085°22'314 9.2
2015-Apr-16 16:28N 25°38' W 079°54'1010.9
2015-Apr-16 15:33N 25°48' W 079°57'1010.3
2015-Apr-16 14:33N 25°58' W 079°59'9 8.9
2015-Apr-16 13:33N 26°06' W 080°04'3 2.3
2015-Apr-16 12:23N 26°05' W 080°07'0 0.0
2015-Apr-16 11:26N 26°05' W 080°07'0 0.0
2015-Apr-16 10:26N 26°05' W 080°07'0 0.0
2015-Apr-16 09:29N 26°05' W 080°07'0 0.0
2015-Apr-16 08:29N 26°05' W 080°07'0 0.0
2015-Apr-16 07:26N 26°05' W 080°07'0 0.0
2015-Apr-16 06:32N 26°05' W 080°07'0 0.0
2015-Apr-16 05:32N 26°05' W 080°07'0 0.0
2015-Apr-16 04:32N 26°05' W 080°07'0 0.0
2015-Apr-16 03:32N 26°05' W 080°07'0 0.0
2015-Apr-16 02:32N 26°05' W 080°07'0 0.0
2015-Apr-16 01:32N 26°05' W 080°07'0 0.0
2015-Apr-16 00:32N 26°05' W 080°07'0 0.0
2015-Apr-15 23:23N 26°05' W 080°07'0 0.0
2015-Apr-15 22:23N 26°05' W 080°07'0 0.0
2015-Apr-15 21:26N 26°05' W 080°07'0 0.0
2015-Apr-15 20:26N 26°05' W 080°07'0 0.0
2015-Apr-15 19:29N 26°05' W 080°07'0 0.0
2015-Apr-15 18:26N 26°05' W 080°07'0 0.0
2015-Apr-15 17:29N 26°05' W 080°07'0 0.0
2015-Apr-15 16:32N 26°05' W 080°07'0 0.0
2015-Apr-15 15:32N 26°05' W 080°07'0 0.0
2015-Apr-15 14:32N 26°05' W 080°07'0 0.0
2015-Apr-15 13:32N 26°05' W 080°07'0 0.0
2015-Apr-15 12:32N 26°05' W 080°07'0 0.0
2015-Apr-15 11:32N 26°05' W 080°07'0 0.0
2015-Apr-15 10:32N 26°05' W 080°07'0 0.0
2015-Apr-15 09:23N 26°05' W 080°07'0 0.0
2015-Apr-15 08:23N 26°05' W 080°07'0 0.0
2015-Apr-15 07:26N 26°05' W 080°07'0 0.0
2015-Apr-15 06:26N 26°05' W 080°07'0 0.0
2015-Apr-15 05:29N 26°05' W 080°07'0 0.0
2015-Apr-15 04:26N 26°05' W 080°07'0 0.0
2015-Apr-15 03:29N 26°05' W 080°07'0 0.0
2015-Apr-15 02:32N 26°05' W 080°07'0 0.0
2015-Apr-15 01:29N 26°05' W 080°07'0 0.1
2015-Apr-15 00:33N 26°05' W 080°07'4 4.1
2015-Apr-14 23:33N 26°06' W 080°03'2 1.6
2015-Apr-14 22:23N 26°08' W 080°04'0 0.0
2015-Apr-14 21:26N 26°08' W 080°04'0 0.0
2015-Apr-14 20:26N 26°08' W 080°04'0 0.0
2015-Apr-14 19:26N 26°08' W 080°04'0 0.0
2015-Apr-14 18:29N 26°08' W 080°04'0 0.0
2015-Apr-14 17:29N 26°08' W 080°04'0 0.0
2015-Apr-14 16:33N 26°08' W 080°04'0 0.0
2015-Apr-14 15:33N 26°08' W 080°04'0 0.0
2015-Apr-14 14:34N 26°08' W 080°04'0 0.0
2015-Apr-14 13:33N 26°08' W 080°04'0 0.0
2015-Apr-14 12:33N 26°08' W 080°04'0 0.0
2015-Apr-14 11:33N 26°08' W 080°04'0 0.0
2015-Apr-14 10:33N 26°08' W 080°04'0 0.0
2015-Apr-14 09:33N 26°08' W 080°04'0 0.0
2015-Apr-14 08:33N 26°08' W 080°04'0 0.0
2015-Apr-14 07:33N 26°08' W 080°04'0 0.0
2015-Apr-14 06:33N 26°08' W 080°04'0 0.0
2015-Apr-14 05:33N 26°08' W 080°04'0 0.0
2015-Apr-14 04:33N 26°08' W 080°04'0 0.0
2015-Apr-14 03:33N 26°08' W 080°04'0 0.0
2015-Apr-14 02:33N 26°08' W 080°04'0 0.0
2015-Apr-14 01:33N 26°08' W 080°04'0 0.0
2015-Apr-14 00:33N 26°08' W 080°04'0 0.0
2015-Apr-13 23:33N 26°08' W 080°04'0 0.0
2015-Apr-13 22:33N 26°08' W 080°04'0 0.0
2015-Apr-13 21:33N 26°08' W 080°04'0 0.0
2015-Apr-13 20:33N 26°08' W 080°04'0 0.0
2015-Apr-13 19:33N 26°08' W 080°04'0 0.0
2015-Apr-13 18:33N 26°08' W 080°04'0 0.0
2015-Apr-13 17:33N 26°08' W 080°04'0 0.0
2015-Apr-13 16:33N 26°08' W 080°04'0 0.0
2015-Apr-13 15:33N 26°08' W 080°04'0 0.0
2015-Apr-13 14:33N 26°08' W 080°04'0 0.0
2015-Apr-13 13:33N 26°08' W 080°04'0 0.0
2015-Apr-13 12:33N 26°08' W 080°04'0 0.0
2015-Apr-13 11:33N 26°08' W 080°04'0 0.0
2015-Apr-13 10:33N 26°08' W 080°04'0 0.0
2015-Apr-13 09:33N 26°08' W 080°04'0 0.0
2015-Apr-13 08:33N 26°08' W 080°04'0 0.0
2015-Apr-13 07:33N 26°08' W 080°04'0 0.0
2015-Apr-13 06:33N 26°08' W 080°04'0 0.0
2015-Apr-13 05:33N 26°08' W 080°04'0 0.0
2015-Apr-13 04:33N 26°08' W 080°04'0 0.0
2015-Apr-13 03:33N 26°08' W 080°04'0 0.0
2015-Apr-13 02:33N 26°08' W 080°04'0 0.0
2015-Apr-13 01:33N 26°08' W 080°04'0 0.0
2015-Apr-13 00:33N 26°08' W 080°04'0 0.0
2015-Apr-12 23:33N 26°08' W 080°04'0 0.0
2015-Apr-12 22:33N 26°08' W 080°04'0 0.0
2015-Apr-12 21:33N 26°08' W 080°04'0 0.0
2015-Apr-12 20:33N 26°08' W 080°04'0 0.0
2015-Apr-12 19:33N 26°08' W 080°04'0 0.0
2015-Apr-12 18:33N 26°08' W 080°04'0 0.0
2015-Apr-12 17:33N 26°08' W 080°04'0 0.0
2015-Apr-12 16:33N 26°08' W 080°04'0 0.0
2015-Apr-12 15:33N 26°08' W 080°04'0 0.0
2015-Apr-12 14:33N 26°08' W 080°04'0 0.0
2015-Apr-12 13:33N 26°08' W 080°04'0 0.0
2015-Apr-12 12:33N 26°08' W 080°04'0 0.0
2015-Apr-12 11:33N 26°08' W 080°04'0 0.0
2015-Apr-12 10:33N 26°08' W 080°04'0 0.1
2015-Apr-12 09:33N 26°08' W 080°04'0 0.0
2015-Apr-12 08:33N 26°08' W 080°04'0 0.0
2015-Apr-12 07:33N 26°08' W 080°04'0 0.0
2015-Apr-12 06:33N 26°08' W 080°04'0 0.0
2015-Apr-12 05:33N 26°08' W 080°04'0 0.0
2015-Apr-12 04:33N 26°08' W 080°04'0 0.0
2015-Apr-12 03:33N 26°08' W 080°04'0 0.0
2015-Apr-12 02:33N 26°08' W 080°04'0 0.1
2015-Apr-12 01:33N 26°08' W 080°04'0 0.0
2015-Apr-12 00:33N 26°08' W 080°04'0 0.0
2015-Apr-11 23:33N 26°08' W 080°04'0 0.0
2015-Apr-11 22:33N 26°08' W 080°04'0 0.0
2015-Apr-11 21:33N 26°08' W 080°04'0 0.0
2015-Apr-11 20:33N 26°08' W 080°04'0 0.0
2015-Apr-11 19:33N 26°08' W 080°04'0 0.1
2015-Apr-11 18:33N 26°08' W 080°04'1 0.6
2015-Apr-11 17:32N 26°08' W 080°03'3 3.1
2015-Apr-11 16:33N 26°05' W 080°02'1414.4
2015-Apr-11 15:33N 25°51' W 079°57'  

Dump ship's entire track history